Time;durP1;ratioP1;P1;durP2;ratioP2;P2;SDS_P1;SDS_P2;PMS_P1;PMS_P2;Temp;Humidity;BMP_temperature;BMP_pressure;BME280_temperature;BME280_humidity;BME280_pressure;Samples;Min_cycle;Max_cycle;Signal;HPM_P1;HPM_P2
2024/04/01 00:00:35;;;;;;;7.95;2.35;;;10.20;99.90;;;;;;4977195;28;20579;-61
2024/04/01 00:03:01;;;;;;;5.70;2.10;;;10.20;99.90;;;;;;4967145;28;20063;-60
2024/04/01 00:05:26;;;;;;;5.55;1.77;;;10.20;99.90;;;;;;4962927;28;20407;-60
2024/04/01 00:07:52;;;;;;;5.05;2.00;;;10.10;99.90;;;;;;4965185;28;20061;-60
2024/04/01 00:10:18;;;;;;;6.70;1.85;;;10.10;99.90;;;;;;4958675;28;20094;-60
2024/04/01 00:12:44;;;;;;;5.32;2.08;;;10.10;99.90;;;;;;4960138;28;20051;-60
2024/04/01 00:15:10;;;;;;;7.22;1.98;;;10.10;99.90;;;;;;4957967;28;20569;-61
2024/04/01 00:17:36;;;;;;;7.93;1.90;;;10.00;99.90;;;;;;4958934;28;20137;-61
2024/04/01 00:20:02;;;;;;;7.72;2.58;;;10.00;99.90;;;;;;4964355;28;20046;-61
2024/04/01 00:22:28;;;;;;;4.40;2.78;;;10.00;99.90;;;;;;4955998;28;20634;-60
2024/04/01 00:24:54;;;;;;;7.88;2.30;;;10.00;99.90;;;;;;4970376;28;20050;-60
2024/04/01 00:27:20;;;;;;;1.92;1.55;;;10.00;99.90;;;;;;4963161;28;20078;-61
2024/04/01 00:29:46;;;;;;;10.63;3.08;;;10.00;99.90;;;;;;4959667;28;20063;-61
2024/04/01 00:32:12;;;;;;;5.22;2.20;;;10.00;99.90;;;;;;4964655;28;20085;-61
2024/04/01 00:34:37;;;;;;;5.78;2.20;;;9.90;99.90;;;;;;4958184;28;20062;-60
2024/04/01 00:37:03;;;;;;;5.35;1.77;;;9.90;99.90;;;;;;4970151;28;20047;-61
2024/04/01 00:39:29;;;;;;;2.00;1.40;;;9.80;99.90;;;;;;4947440;28;20050;-61
2024/04/01 00:41:55;;;;;;;6.47;1.88;;;9.80;99.90;;;;;;4971665;28;20046;-60
2024/04/01 00:44:21;;;;;;;3.60;1.48;;;9.80;99.90;;;;;;4968887;28;20047;-60
2024/04/01 00:46:47;;;;;;;3.47;1.70;;;9.80;99.90;;;;;;4946479;28;20109;-61
2024/04/01 00:49:13;;;;;;;3.78;1.60;;;9.90;99.90;;;;;;4960377;28;20495;-60
2024/04/01 00:51:39;;;;;;;3.15;1.60;;;9.90;99.90;;;;;;4963003;28;20058;-60
2024/04/01 00:54:06;;;;;;;4.97;1.88;;;9.90;99.90;;;;;;4964046;28;20046;-61
2024/04/01 00:56:34;;;;;;;7.18;1.67;;;9.90;99.90;;;;;;4963692;28;20054;-61
2024/04/01 00:59:03;;;;;;;7.47;2.08;;;10.00;99.90;;;;;;4961157;28;20050;-61
2024/04/01 01:01:31;;;;;;;4.22;1.77;;;10.00;99.90;;;;;;4963939;28;20097;-61
2024/04/01 01:03:59;;;;;;;3.08;1.77;;;10.10;99.90;;;;;;4957916;28;20055;-61
2024/04/01 01:06:26;;;;;;;6.10;1.50;;;10.30;99.90;;;;;;4957149;28;20054;-60
2024/04/01 01:08:52;;;;;;;7.18;1.67;;;10.30;99.90;;;;;;4958132;28;20492;-60
2024/04/01 01:11:18;;;;;;;2.42;1.55;;;10.10;99.90;;;;;;4958898;28;20074;-60
2024/04/01 01:13:44;;;;;;;5.10;1.80;;;10.00;99.90;;;;;;4957931;28;20058;-61
2024/04/01 01:16:10;;;;;;;5.88;2.00;;;10.00;99.90;;;;;;4964690;28;20042;-61
2024/04/01 01:18:36;;;;;;;2.72;1.40;;;10.10;99.90;;;;;;4963365;28;20043;-60
2024/04/01 01:21:03;;;;;;;3.22;1.42;;;10.10;99.90;;;;;;4967379;28;20070;-60
2024/04/01 01:23:29;;;;;;;3.67;1.20;;;10.10;99.90;;;;;;4961302;28;20054;-61
2024/04/01 01:25:54;;;;;;;3.90;1.30;;;10.10;99.90;;;;;;4968835;28;20054;-60
2024/04/01 01:28:21;;;;;;;4.93;1.25;;;10.00;99.90;;;;;;4963157;28;20141;-60
2024/04/01 01:30:47;;;;;;;4.05;1.15;;;10.00;99.90;;;;;;4958923;28;20042;-61
2024/04/01 01:33:13;;;;;;;1.85;0.88;;;10.00;99.90;;;;;;4959497;28;20105;-61
2024/04/01 01:35:39;;;;;;;1.75;1.20;;;10.10;99.90;;;;;;4952841;28;20411;-61
2024/04/01 01:38:05;;;;;;;1.95;1.00;;;10.20;99.90;;;;;;4960478;28;20057;-60
2024/04/01 01:40:31;;;;;;;2.53;1.92;;;10.30;99.90;;;;;;4965072;28;20487;-60
2024/04/01 01:42:57;;;;;;;1.40;0.80;;;10.30;99.90;;;;;;4966963;28;20096;-60
2024/04/01 01:45:23;;;;;;;2.28;0.98;;;10.00;99.90;;;;;;4962273;28;20077;-60
2024/04/01 01:47:49;;;;;;;1.95;0.80;;;9.90;99.90;;;;;;4964454;28;20480;-60
2024/04/01 01:50:14;;;;;;;1.48;0.65;;;9.80;99.90;;;;;;4965482;28;20055;-61
2024/04/01 01:52:40;;;;;;;1.83;0.80;;;10.00;99.90;;;;;;4981111;28;20597;-59
2024/04/01 01:55:06;;;;;;;1.52;1.23;;;10.10;99.90;;;;;;4958628;28;20728;-59
2024/04/01 01:57:33;;;;;;;3.13;1.10;;;10.20;99.90;;;;;;4961427;28;20059;-61
2024/04/01 02:00:00;;;;;;;3.53;1.77;;;10.20;99.90;;;;;;4961747;28;20046;-61
2024/04/01 02:02:26;;;;;;;2.00;0.85;;;10.00;99.90;;;;;;4956306;28;20090;-61
2024/04/01 02:04:52;;;;;;;2.38;0.82;;;9.90;99.90;;;;;;4958640;28;20065;-60
2024/04/01 02:07:17;;;;;;;1.85;0.60;;;9.90;99.90;;;;;;4953306;28;20054;-60
2024/04/01 02:09:43;;;;;;;1.38;0.50;;;9.90;99.90;;;;;;4955780;28;20687;-61
2024/04/01 02:12:09;;;;;;;1.63;0.77;;;10.00;99.90;;;;;;4956303;28;20471;-61
2024/04/01 02:14:36;;;;;;;2.50;0.90;;;10.10;99.90;;;;;;4961424;28;20097;-60
2024/04/01 02:17:03;;;;;;;4.32;0.55;;;10.10;99.90;;;;;;4969069;28;20439;-59
2024/04/01 02:19:30;;;;;;;1.50;0.70;;;9.90;99.90;;;;;;4963987;28;20411;-61
2024/04/01 02:21:56;;;;;;;1.85;0.65;;;9.90;99.90;;;;;;4961711;28;20042;-60
2024/04/01 02:24:22;;;;;;;1.05;0.80;;;10.00;99.90;;;;;;4962366;28;20176;-60
2024/04/01 02:26:48;;;;;;;2.13;0.88;;;10.10;99.90;;;;;;4961404;28;20062;-61
2024/04/01 02:29:14;;;;;;;2.80;0.80;;;10.20;99.90;;;;;;4960926;28;20053;-61
2024/04/01 02:31:40;;;;;;;2.38;0.73;;;10.30;99.90;;;;;;4959900;28;20065;-59
2024/04/01 02:34:07;;;;;;;2.45;0.90;;;10.20;99.90;;;;;;4955431;28;20130;-60
2024/04/01 02:36:34;;;;;;;2.75;1.00;;;10.20;99.90;;;;;;4960891;28;20790;-61
2024/04/01 02:38:59;;;;;;;3.95;1.00;;;10.30;99.90;;;;;;4964622;28;20415;-61
2024/04/01 02:41:25;;;;;;;3.22;1.00;;;10.30;99.90;;;;;;4961958;28;20078;-61
2024/04/01 02:43:51;;;;;;;1.13;0.90;;;10.30;99.90;;;;;;4958335;28;20160;-61
2024/04/01 02:46:17;;;;;;;1.08;0.80;;;10.40;99.90;;;;;;4961457;28;20051;-60
2024/04/01 02:48:43;;;;;;;3.90;0.73;;;10.30;99.90;;;;;;4962695;28;20062;-61
2024/04/01 02:51:09;;;;;;;2.42;0.77;;;10.30;99.90;;;;;;4962214;28;20052;-61
2024/04/01 02:53:35;;;;;;;0.80;0.60;;;10.30;99.90;;;;;;4958172;28;20047;-61
2024/04/01 02:56:00;;;;;;;4.28;0.90;;;10.30;99.90;;;;;;4960900;28;20082;-61
2024/04/01 02:58:26;;;;;;;2.50;0.80;;;10.30;99.90;;;;;;4958606;28;20093;-60
2024/04/01 03:00:52;;;;;;;1.65;0.80;;;10.20;99.90;;;;;;4956968;28;20047;-61
2024/04/01 03:03:18;;;;;;;0.70;0.60;;;10.20;99.90;;;;;;4959806;28;20111;-60
2024/04/01 03:05:43;;;;;;;1.95;1.17;;;10.10;99.90;;;;;;4957594;28;20082;-60
2024/04/01 03:08:09;;;;;;;1.33;0.75;;;10.10;99.90;;;;;;4961759;28;20483;-60
2024/04/01 03:10:36;;;;;;;1.30;0.70;;;10.10;99.90;;;;;;4955910;28;20439;-60
2024/04/01 03:13:08;;;;;;;4.00;1.13;;;10.00;99.90;;;;;;4961889;28;20059;-61
2024/04/01 03:15:37;;;;;;;3.08;1.20;;;10.00;99.90;;;;;;4948535;28;20063;-61
2024/04/01 03:18:03;;;;;;;5.60;1.30;;;10.00;99.90;;;;;;4963088;28;20062;-61
2024/04/01 03:20:28;;;;;;;2.75;1.63;;;10.00;99.90;;;;;;4959523;28;20102;-60
2024/04/01 03:22:54;;;;;;;4.15;1.27;;;10.10;99.90;;;;;;4959875;28;20058;-60
2024/04/01 03:25:20;;;;;;;3.10;1.55;;;10.10;99.90;;;;;;4963287;28;20619;-60
2024/04/01 03:27:45;;;;;;;2.88;1.40;;;10.10;99.90;;;;;;4959584;28;20055;-61
2024/04/01 03:30:11;;;;;;;6.35;2.08;;;10.00;99.90;;;;;;4960638;28;20065;-60
2024/04/01 03:32:37;;;;;;;2.60;1.75;;;10.10;99.90;;;;;;4952639;28;20090;-61
2024/04/01 03:35:07;;;;;;;2.75;1.90;;;10.10;99.90;;;;;;4965737;28;20116;-61
2024/04/01 03:37:32;;;;;;;4.13;2.30;;;10.10;99.90;;;;;;4959631;28;20046;-61
2024/04/01 03:39:58;;;;;;;4.32;2.28;;;10.10;99.90;;;;;;4966907;28;20578;-61
2024/04/01 03:42:24;;;;;;;4.15;2.53;;;10.10;99.90;;;;;;4961445;28;20053;-61
2024/04/01 03:44:53;;;;;;;4.43;2.15;;;10.00;99.90;;;;;;4959914;28;20081;-61
2024/04/01 03:47:22;;;;;;;3.53;2.20;;;10.00;99.90;;;;;;4964045;28;20046;-60
2024/04/01 03:49:50;;;;;;;2.90;2.05;;;10.00;99.90;;;;;;4963706;28;20065;-61
2024/04/01 03:52:16;;;;;;;4.65;2.53;;;10.10;99.90;;;;;;4959110;28;20519;-60
2024/04/01 03:54:42;;;;;;;4.25;2.60;;;10.10;99.90;;;;;;4954131;28;20055;-60
2024/04/01 03:57:08;;;;;;;7.07;3.05;;;10.10;99.90;;;;;;4960713;28;20124;-60
2024/04/01 03:59:34;;;;;;;4.10;3.17;;;10.00;99.90;;;;;;4958227;28;20046;-60
2024/04/01 04:02:00;;;;;;;6.05;3.95;;;10.10;99.90;;;;;;4958374;28;20045;-60
2024/04/01 04:04:26;;;;;;;9.13;4.22;;;10.00;99.90;;;;;;4966124;28;20077;-61
2024/04/01 04:06:51;;;;;;;7.95;4.72;;;10.00;99.90;;;;;;4959931;28;20078;-60
2024/04/01 04:09:17;;;;;;;6.43;4.43;;;10.00;99.90;;;;;;4971514;28;20518;-61
2024/04/01 04:11:50;;;;;;;7.72;4.70;;;9.90;99.90;;;;;;4958668;28;20118;-60
2024/04/01 04:14:23;;;;;;;13.07;5.22;;;10.00;99.90;;;;;;4963205;28;20413;-60
2024/04/01 04:16:50;;;;;;;6.63;4.30;;;10.00;99.90;;;;;;4960517;28;20046;-61
2024/04/01 04:19:17;;;;;;;5.78;4.13;;;9.90;99.90;;;;;;4959921;28;20458;-60
2024/04/01 04:21:43;;;;;;;7.15;3.83;;;9.90;99.90;;;;;;4965398;28;20058;-60
2024/04/01 04:24:14;;;;;;;6.28;3.90;;;9.90;99.90;;;;;;4966655;28;20101;-61
2024/04/01 04:26:41;;;;;;;3.33;2.47;;;9.90;99.90;;;;;;4964686;28;20451;-61
2024/04/01 04:29:07;;;;;;;8.50;3.28;;;9.90;99.90;;;;;;4962581;28;20117;-60
2024/04/01 04:31:33;;;;;;;4.80;2.70;;;9.90;99.90;;;;;;4955920;28;20051;-61
2024/04/01 04:33:59;;;;;;;3.03;2.10;;;9.90;99.90;;;;;;4955299;28;20046;-60
2024/04/01 04:36:26;;;;;;;2.97;1.65;;;9.90;99.90;;;;;;4964527;28;20047;-59
2024/04/01 04:38:53;;;;;;;4.03;1.55;;;9.90;99.90;;;;;;4966193;28;20432;-60
2024/04/01 04:41:22;;;;;;;4.70;1.52;;;9.90;99.90;;;;;;4962098;28;20047;-60
2024/04/01 04:43:48;;;;;;;1.23;1.10;;;9.90;99.90;;;;;;4963221;28;20419;-60
2024/04/01 04:46:14;;;;;;;2.08;1.27;;;10.00;99.90;;;;;;4966635;28;20078;-60
2024/04/01 04:48:44;;;;;;;2.13;1.40;;;10.00;99.90;;;;;;4966623;28;20093;-60
2024/04/01 04:51:10;;;;;;;1.20;1.10;;;10.00;99.90;;;;;;4967357;28;20488;-59
2024/04/01 04:53:37;;;;;;;3.88;1.17;;;10.00;99.90;;;;;;4962827;28;20047;-60
2024/04/01 04:56:06;;;;;;;3.58;1.00;;;10.00;99.90;;;;;;4956705;28;20054;-60
2024/04/01 04:58:32;;;;;;;1.45;0.50;;;10.00;99.90;;;;;;4966207;28;20050;-60
2024/04/01 05:01:05;;;;;;;2.22;0.68;;;10.00;99.90;;;;;;4967240;28;20059;-60
2024/04/01 05:03:34;;;;;;;1.10;0.63;;;10.10;99.90;;;;;;4959520;28;20105;-60
2024/04/01 05:06:03;;;;;;;1.75;0.40;;;10.10;99.90;;;;;;4963050;28;20047;-60
2024/04/01 05:08:29;;;;;;;0.80;0.32;;;10.10;99.90;;;;;;4961767;28;20055;-59
2024/04/01 05:10:56;;;;;;;0.20;0.20;;;10.10;99.90;;;;;;4957426;28;20550;-59
2024/04/01 05:13:22;;;;;;;0.55;0.30;;;10.20;99.90;;;;;;4966539;28;20471;-60
2024/04/01 05:15:47;;;;;;;0.40;0.20;;;10.20;99.90;;;;;;4957984;28;20070;-61
2024/04/01 05:18:13;;;;;;;0.40;0.40;;;10.20;99.90;;;;;;4966049;28;20442;-60
2024/04/01 05:20:39;;;;;;;1.30;0.32;;;10.20;99.90;;;;;;4962270;28;20420;-60
2024/04/01 05:23:05;;;;;;;0.68;0.55;;;10.20;99.90;;;;;;4962862;28;20054;-60
2024/04/01 05:25:30;;;;;;;0.40;0.40;;;10.20;99.90;;;;;;4956909;28;20093;-60
2024/04/01 05:27:58;;;;;;;0.35;0.30;;;10.30;99.90;;;;;;4962215;28;20058;-60
2024/04/01 05:30:24;;;;;;;5.63;1.48;;;10.30;99.90;;;;;;4961909;28;20076;-60
2024/04/01 05:32:50;;;;;;;1.05;0.95;;;10.30;99.90;;;;;;4968583;28;20515;-60
2024/04/01 05:35:17;;;;;;;3.72;3.00;;;10.30;99.90;;;;;;4967077;28;20065;-60
2024/04/01 05:37:43;;;;;;;0.50;0.50;;;10.30;99.90;;;;;;4957475;28;20503;-60
2024/04/01 05:40:10;;;;;;;9.45;6.10;;;10.50;99.90;;;;;;4960992;28;20082;-60
2024/04/01 05:42:35;;;;;;;0.40;0.30;;;10.50;99.90;;;;;;4968074;28;20055;-60
2024/04/01 05:45:01;;;;;;;0.45;0.30;;;10.50;99.90;;;;;;4964774;28;20148;-60
2024/04/01 05:47:27;;;;;;;0.20;0.20;;;10.60;99.90;;;;;;4964939;28;20053;-60
2024/04/01 05:49:53;;;;;;;0.50;0.35;;;10.60;99.90;;;;;;4965570;28;20121;-60
2024/04/01 05:52:19;;;;;;;0.60;0.30;;;10.60;99.90;;;;;;4966954;28;20061;-60
2024/04/01 05:54:45;;;;;;;0.93;0.50;;;10.60;99.90;;;;;;4964089;28;20554;-60
2024/04/01 05:57:10;;;;;;;1.08;0.32;;;10.50;99.90;;;;;;4978037;28;20076;-60
2024/04/01 05:59:36;;;;;;;0.95;0.50;;;10.40;99.90;;;;;;4963247;28;20133;-60
2024/04/01 06:02:02;;;;;;;1.75;0.40;;;10.40;99.90;;;;;;4966792;28;20054;-59
2024/04/01 06:04:28;;;;;;;0.75;0.20;;;10.30;99.90;;;;;;4959225;28;20045;-60
2024/04/01 06:06:53;;;;;;;0.40;0.40;;;10.40;99.90;;;;;;4960113;28;20059;-59
2024/04/01 06:09:19;;;;;;;0.57;0.35;;;10.30;99.90;;;;;;4962021;28;20149;-60
2024/04/01 06:11:45;;;;;;;0.65;0.30;;;10.30;99.90;;;;;;4971049;28;20062;-60
2024/04/01 06:14:11;;;;;;;0.40;0.40;;;10.40;99.90;;;;;;4960585;28;20096;-60
2024/04/01 06:16:38;;;;;;;6.13;0.57;;;10.40;99.90;;;;;;4962555;28;20050;-59
2024/04/01 06:19:04;;;;;;;0.98;0.70;;;10.40;99.90;;;;;;4957245;28;20065;-59
2024/04/01 06:21:30;;;;;;;4.30;0.52;;;10.40;99.90;;;;;;4960159;28;20043;-60
2024/04/01 06:23:58;;;;;;;0.70;0.40;;;10.50;99.90;;;;;;4955022;28;20536;-60
2024/04/01 06:26:27;;;;;;;0.75;0.50;;;10.50;99.90;;;;;;4973306;28;20519;-61
2024/04/01 06:28:53;;;;;;;0.60;0.50;;;10.60;99.90;;;;;;4962892;28;20542;-60
2024/04/01 06:31:19;;;;;;;0.38;0.38;;;10.60;99.90;;;;;;4957021;28;20507;-60
2024/04/01 06:33:45;;;;;;;1.35;0.95;;;10.70;99.90;;;;;;4965310;28;20073;-60
2024/04/01 06:36:11;;;;;;;0.93;0.63;;;10.70;99.90;;;;;;4964701;28;20440;-60
2024/04/01 06:38:39;;;;;;;0.30;0.30;;;10.60;99.90;;;;;;4968029;28;20459;-59
2024/04/01 06:41:05;;;;;;;0.40;0.30;;;10.70;99.90;;;;;;4959590;28;20496;-60
2024/04/01 06:43:32;;;;;;;1.13;0.28;;;10.70;99.90;;;;;;4950673;28;20061;-61
2024/04/01 06:46:00;;;;;;;0.30;0.30;;;10.60;99.90;;;;;;4957075;28;20423;-60
2024/04/01 06:48:26;;;;;;;2.05;0.30;;;10.60;99.90;;;;;;4957232;28;20045;-60
2024/04/01 06:50:53;;;;;;;0.20;0.20;;;10.60;99.90;;;;;;4962090;28;20050;-60
2024/04/01 06:53:19;;;;;;;0.20;0.20;;;10.60;99.90;;;;;;4963266;28;20491;-59
2024/04/01 06:55:45;;;;;;;0.40;0.40;;;10.60;99.90;;;;;;4967682;28;20047;-61
2024/04/01 06:58:12;;;;;;;0.32;0.20;;;10.60;99.90;;;;;;4956839;28;20156;-60
2024/04/01 07:00:38;;;;;;;0.20;0.20;;;10.50;99.90;;;;;;4960393;28;20046;-60
2024/04/01 07:03:05;;;;;;;0.35;0.35;;;10.50;99.90;;;;;;4962598;28;20050;-60
2024/04/01 07:05:32;;;;;;;0.30;0.30;;;10.40;99.90;;;;;;4954023;28;20053;-60
2024/04/01 07:07:59;;;;;;;0.63;0.40;;;10.50;99.90;;;;;;4957946;28;20050;-60
2024/04/01 07:10:29;;;;;;;0.50;0.50;;;10.50;99.90;;;;;;4955262;28;20054;-60
2024/04/01 07:12:55;;;;;;;0.65;0.30;;;10.50;99.90;;;;;;4962002;28;20058;-60
2024/04/01 07:15:22;;;;;;;0.30;0.30;;;10.50;99.90;;;;;;4956171;28;20059;-60
2024/04/01 07:17:47;;;;;;;0.30;0.30;;;10.50;99.90;;;;;;4966455;28;20059;-60
2024/04/01 07:20:14;;;;;;;0.25;0.22;;;10.40;99.90;;;;;;4963316;28;20503;-60
2024/04/01 07:22:40;;;;;;;0.35;0.30;;;10.40;99.90;;;;;;4957329;28;20082;-60
2024/04/01 07:25:06;;;;;;;0.40;0.40;;;10.40;99.90;;;;;;4964202;28;20054;-60
2024/04/01 07:27:34;;;;;;;0.38;0.38;;;10.40;99.90;;;;;;4959618;28;20046;-60
2024/04/01 07:30:05;;;;;;;0.80;0.70;;;10.40;99.90;;;;;;4955926;28;20058;-60
2024/04/01 07:32:32;;;;;;;1.77;0.32;;;10.40;99.90;;;;;;4959868;28;20133;-60
2024/04/01 07:34:59;;;;;;;0.50;0.50;;;10.40;99.90;;;;;;4959598;28;20054;-60
2024/04/01 07:37:25;;;;;;;1.27;0.98;;;10.40;99.90;;;;;;4960601;28;20420;-60
2024/04/01 07:39:52;;;;;;;1.08;0.80;;;10.40;99.90;;;;;;4959989;28;20105;-60
2024/04/01 07:42:18;;;;;;;0.47;0.47;;;10.40;99.90;;;;;;4962955;28;20042;-60
2024/04/01 07:44:44;;;;;;;1.08;0.70;;;10.50;99.90;;;;;;4950207;28;20050;-60
2024/04/01 07:47:10;;;;;;;0.80;0.60;;;10.50;99.90;;;;;;4966806;28;20081;-60
2024/04/01 07:49:35;;;;;;;0.68;0.50;;;10.50;99.90;;;;;;4960474;28;20133;-60
2024/04/01 07:52:02;;;;;;;0.40;0.40;;;10.50;99.90;;;;;;4964278;28;20062;-60
2024/04/01 07:54:28;;;;;;;0.30;0.30;;;10.50;99.90;;;;;;4958836;28;20051;-60
2024/04/01 07:56:57;;;;;;;0.35;0.28;;;10.50;99.90;;;;;;4960496;28;20050;-60
2024/04/01 07:59:23;;;;;;;0.45;0.38;;;10.50;99.90;;;;;;4966870;28;20638;-60
2024/04/01 08:01:50;;;;;;;0.20;0.20;;;10.50;99.90;;;;;;4956868;28;20050;-60
2024/04/01 08:04:16;;;;;;;0.80;0.30;;;10.40;99.90;;;;;;4963384;28;20046;-60
2024/04/01 08:06:43;;;;;;;0.47;0.40;;;10.40;99.90;;;;;;4964793;28;20106;-60
2024/04/01 08:09:09;;;;;;;0.30;0.30;;;10.40;99.90;;;;;;4966119;28;20105;-60
2024/04/01 08:11:35;;;;;;;0.60;0.60;;;10.40;99.90;;;;;;4964662;28;20054;-61
2024/04/01 08:14:00;;;;;;;0.20;0.20;;;10.40;99.90;;;;;;4978690;28;20480;-60
2024/04/01 08:16:26;;;;;;;0.30;0.20;;;10.30;99.90;;;;;;4960165;28;20121;-60
2024/04/01 08:18:52;;;;;;;1.75;0.40;;;10.30;99.90;;;;;;4959320;28;20113;-60
2024/04/01 08:21:18;;;;;;;0.55;0.28;;;10.30;99.90;;;;;;4965047;28;20495;-60
2024/04/01 08:23:44;;;;;;;0.30;0.30;;;10.30;99.90;;;;;;4955287;28;20483;-61
2024/04/01 08:26:09;;;;;;;0.30;0.30;;;10.40;99.90;;;;;;4963115;28;20551;-61
2024/04/01 08:28:35;;;;;;;1.45;0.60;;;10.30;99.90;;;;;;4970296;28;20320;-60
2024/04/01 08:31:01;;;;;;;1.20;0.60;;;10.10;99.90;;;;;;4966138;28;20054;-60
2024/04/01 08:33:27;;;;;;;2.38;0.30;;;10.10;99.90;;;;;;4950628;28;20065;-61
2024/04/01 08:35:52;;;;;;;0.60;0.60;;;10.10;99.90;;;;;;4980908;28;20078;-60
2024/04/01 08:38:18;;;;;;;0.35;0.35;;;10.10;99.90;;;;;;4957293;28;20539;-61
2024/04/01 08:40:52;;;;;;;1.73;1.00;;;10.20;99.90;;;;;;4960774;28;20423;-61
2024/04/01 08:43:35;;;;;;;0.52;0.40;;;10.10;99.90;;;;;;4969925;28;20043;-61
2024/04/01 08:46:02;;;;;;;0.75;0.70;;;10.00;99.90;;;;;;4956934;28;20617;-61
2024/04/01 08:48:30;;;;;;;0.45;0.30;;;9.90;99.90;;;;;;4956591;28;20086;-61
2024/04/01 08:51:02;;;;;;;0.20;0.20;;;9.70;99.90;;;;;;4963126;28;20614;-60
2024/04/01 08:53:48;;;;;;;0.38;0.38;;;9.70;99.90;;;;;;4956991;28;20109;-60
2024/04/01 08:56:13;;;;;;;0.25;0.25;;;9.70;99.90;;;;;;4957908;28;20047;-60
2024/04/01 08:58:40;;;;;;;0.20;0.20;;;9.70;99.90;;;;;;4960054;28;20050;-60
2024/04/01 09:01:05;;;;;;;0.38;0.38;;;9.80;99.90;;;;;;4966192;28;20046;-60
2024/04/01 09:03:31;;;;;;;0.40;0.40;;;10.10;99.90;;;;;;4960994;28;20407;-60
2024/04/01 09:05:58;;;;;;;3.42;0.50;;;10.30;99.90;;;;;;4965020;28;20054;-60
2024/04/01 09:08:25;;;;;;;0.50;0.45;;;10.20;99.90;;;;;;4968239;28;20053;-60
2024/04/01 09:10:52;;;;;;;0.40;0.40;;;10.10;99.90;;;;;;4964069;28;20109;-60
2024/04/01 09:13:19;;;;;;;0.30;0.30;;;9.90;99.90;;;;;;4955206;28;20058;-60
2024/04/01 09:15:49;;;;;;;0.85;0.32;;;9.80;99.90;;;;;;4961025;28;20111;-59
2024/04/01 09:18:16;;;;;;;0.30;0.30;;;9.70;99.90;;;;;;4960186;28;20070;-59
2024/04/01 09:20:43;;;;;;;1.08;0.50;;;9.50;99.90;;;;;;4958425;28;20057;-59
2024/04/01 09:23:09;;;;;;;0.45;0.45;;;9.50;99.90;;;;;;4956219;28;20531;-60
2024/04/01 09:25:35;;;;;;;1.20;0.40;;;9.40;99.90;;;;;;4964807;28;20046;-61
2024/04/01 09:28:01;;;;;;;0.65;0.60;;;9.30;99.90;;;;;;4950891;28;20049;-60
2024/04/01 09:30:27;;;;;;;0.38;0.35;;;9.30;99.90;;;;;;4956767;28;20375;-61
2024/04/01 09:32:53;;;;;;;0.35;0.25;;;9.20;99.90;;;;;;4955749;28;20054;-60
2024/04/01 09:35:23;;;;;;;1.13;0.30;;;9.20;99.90;;;;;;4965249;28;20050;-61
2024/04/01 09:37:52;;;;;;;0.30;0.30;;;9.30;99.90;;;;;;4980977;28;20063;-60
2024/04/01 09:40:18;;;;;;;0.60;0.50;;;9.30;99.90;;;;;;4961581;28;20050;-60
2024/04/01 09:42:48;;;;;;;0.32;0.32;;;9.30;99.90;;;;;;4971560;28;20063;-61
2024/04/01 09:45:14;;;;;;;0.50;0.50;;;9.40;99.90;;;;;;4959392;28;20128;-60
2024/04/01 09:47:40;;;;;;;0.50;0.50;;;9.40;99.90;;;;;;4955295;28;20051;-60
2024/04/01 09:50:07;;;;;;;0.40;0.40;;;9.50;99.90;;;;;;4962691;28;20125;-61
2024/04/01 09:52:33;;;;;;;0.30;0.30;;;9.50;99.90;;;;;;4955308;28;20109;-60
2024/04/01 09:55:06;;;;;;;0.68;0.32;;;9.40;99.90;;;;;;4960555;28;20055;-60
2024/04/01 09:57:35;;;;;;;0.43;0.30;;;9.40;99.90;;;;;;4976663;28;20057;-60
2024/04/01 10:00:09;;;;;;;0.20;0.20;;;9.40;99.90;;;;;;4959944;28;20062;-60
2024/04/01 10:03:06;;;;;;;0.32;0.32;;;9.40;99.90;;;;;;4954356;28;20046;-61
2024/04/01 10:05:57;;;;;;;0.88;0.40;;;9.30;99.90;;;;;;4961684;28;20479;-60
2024/04/01 10:08:25;;;;;;;;;;;9.30;99.90;;;;;;4971958;28;20073;-61
2024/04/01 10:11:15;;;;;;;0.30;0.30;;;9.20;99.90;;;;;;4969696;28;19922;-60
2024/04/01 10:14:01;;;;;;;0.50;0.50;;;9.20;99.90;;;;;;4968563;28;20054;-60
2024/04/01 10:16:48;;;;;;;2.35;1.27;;;9.30;99.90;;;;;;4963440;28;20047;-61
2024/04/01 10:19:51;;;;;;;1.60;1.05;;;9.30;99.90;;;;;;4961504;28;20050;-60
2024/04/01 10:22:36;;;;;;;0.57;0.57;;;9.30;99.90;;;;;;4960484;28;20645;-60
2024/04/01 10:25:17;;;;;;;0.60;0.60;;;9.30;99.90;;;;;;4961121;28;20057;-60
2024/04/01 10:28:22;;;;;;;0.90;0.80;;;9.30;99.90;;;;;;4961479;28;20046;-60
2024/04/01 10:30:54;;;;;;;0.80;0.80;;;9.20;99.90;;;;;;4968466;28;20058;-60
2024/04/01 10:33:47;;;;;;;1.60;1.02;;;9.30;99.90;;;;;;4961060;28;20518;-60
2024/04/01 10:36:15;;;;;;;1.55;0.75;;;9.40;99.90;;;;;;4949133;28;20066;-61
2024/04/01 10:38:55;;;;;;;1.35;1.08;;;9.50;99.90;;;;;;4962992;28;20102;-61
2024/04/01 10:41:42;;;;;;;0.57;0.55;;;9.50;99.90;;;;;;4966927;28;20050;-60
2024/04/01 10:44:39;;;;;;;0.80;0.40;;;9.50;99.90;;;;;;4965933;28;20046;-61
2024/04/01 10:47:31;;;;;;;1.35;0.73;;;9.50;99.90;;;;;;4963188;28;20050;-60
2024/04/01 10:50:06;;;;;;;0.70;0.60;;;9.50;99.90;;;;;;4963940;28;20065;-61
2024/04/01 10:52:55;;;;;;;3.95;1.02;;;9.60;99.90;;;;;;4961185;28;20074;-59
2024/04/01 10:55:24;;;;;;;1.20;0.70;;;9.80;99.90;;;;;;4976952;28;20062;-61
2024/04/01 10:58:04;;;;;;;0.77;0.77;;;10.00;99.90;;;;;;4957183;28;20062;-61
2024/04/01 11:00:53;;;;;;;1.13;0.60;;;10.20;99.90;;;;;;4962895;28;20043;-59
2024/04/01 11:03:34;;;;;;;1.15;0.50;;;10.50;99.90;;;;;;4975710;28;20050;-60
2024/04/01 11:06:15;;;;;;;2.10;0.50;;;11.00;99.90;;;;;;4959480;28;20058;-60
2024/04/01 11:09:11;;;;;;;1.92;0.60;;;11.30;99.90;;;;;;4957392;28;20554;-61
2024/04/01 11:11:42;;;;;;;1.45;0.60;;;11.60;99.90;;;;;;4969159;28;20411;-60
2024/04/01 11:14:10;;;;;;;1.48;1.08;;;11.80;99.90;;;;;;4957486;28;20049;-61
2024/04/01 11:16:41;;;;;;;0.80;0.70;;;12.10;99.90;;;;;;4955179;28;20055;-60
2024/04/01 11:19:37;;;;;;;1.25;0.60;;;11.90;99.90;;;;;;4961489;28;20065;-61
2024/04/01 11:22:06;;;;;;;1.80;0.90;;;11.90;99.90;;;;;;4958342;28;20153;-61
2024/04/01 11:24:50;;;;;;;0.90;0.63;;;12.10;99.90;;;;;;4974990;28;20451;-60
2024/04/01 11:27:35;;;;;;;1.52;0.60;;;12.10;99.90;;;;;;4960490;28;20506;-61
2024/04/01 11:30:10;;;;;;;0.88;0.80;;;12.00;99.90;;;;;;4979689;28;20400;-61
2024/04/01 11:32:38;;;;;;;1.13;0.60;;;11.80;99.90;;;;;;4957503;28;20412;-61
2024/04/01 11:35:17;;;;;;;0.57;0.57;;;11.70;99.90;;;;;;4958138;28;20054;-61
2024/04/01 11:37:55;;;;;;;0.50;0.50;;;11.60;99.90;;;;;;4957300;28;20656;-61
2024/04/01 11:40:26;;;;;;;1.33;0.60;;;11.60;99.90;;;;;;4957803;28;20543;-61
2024/04/01 11:42:57;;;;;;;2.17;1.02;;;11.70;99.90;;;;;;4954799;28;20047;-60
2024/04/01 11:45:29;;;;;;;3.10;0.93;;;11.80;99.90;;;;;;4965423;28;20051;-60
2024/04/01 11:47:56;;;;;;;0.75;0.40;;;11.80;99.90;;;;;;4960636;28;20331;-61
2024/04/01 11:50:22;;;;;;;2.80;0.60;;;11.80;99.90;;;;;;4950921;28;20061;-61
2024/04/01 11:53:05;;;;;;;0.52;0.30;;;11.90;99.90;;;;;;4956636;28;20047;-61
2024/04/01 11:55:33;;;;;;;0.30;0.28;;;11.70;99.90;;;;;;4960363;28;20058;-61
2024/04/01 11:58:09;;;;;;;0.50;0.40;;;11.70;99.90;;;;;;4965685;28;20054;-61
2024/04/01 12:00:35;;;;;;;0.30;0.30;;;11.80;99.90;;;;;;4952784;28;20042;-61
2024/04/01 12:03:02;;;;;;;0.50;0.50;;;12.10;99.90;;;;;;4962207;28;20230;-60
2024/04/01 12:05:28;;;;;;;1.15;0.50;;;12.40;99.90;;;;;;4961134;28;20043;-61
2024/04/01 12:07:56;;;;;;;0.30;0.30;;;12.80;99.90;;;;;;4964702;28;20059;-61
2024/04/01 12:10:22;;;;;;;0.68;0.30;;;12.90;99.90;;;;;;4964631;28;20407;-60
2024/04/01 12:12:49;;;;;;;1.48;0.47;;;12.80;99.90;;;;;;4959948;28;20050;-61
2024/04/01 12:15:18;;;;;;;0.20;0.20;;;12.80;99.90;;;;;;4963395;28;20054;-61
2024/04/01 12:17:46;;;;;;;0.30;0.30;;;12.50;99.90;;;;;;4966916;28;20059;-60
2024/04/01 12:20:12;;;;;;;0.40;0.40;;;12.60;99.90;;;;;;4965084;28;20047;-61
2024/04/01 12:22:40;;;;;;;0.30;0.30;;;12.60;99.90;;;;;;4959126;28;20050;-62
2024/04/01 12:25:07;;;;;;;0.80;0.38;;;12.50;99.90;;;;;;4963222;28;20062;-60
2024/04/01 12:27:33;;;;;;;0.75;0.40;;;12.70;99.90;;;;;;4954321;28;20055;-61
2024/04/01 12:30:06;;;;;;;0.85;0.40;;;12.70;99.90;;;;;;4957399;28;20054;-60
2024/04/01 12:32:43;;;;;;;0.90;0.40;;;12.60;99.90;;;;;;4957299;28;20065;-61
2024/04/01 12:35:19;;;;;;;0.30;0.25;;;12.50;99.90;;;;;;4977358;28;20058;-61
2024/04/01 12:37:48;;;;;;;0.65;0.40;;;12.80;99.90;;;;;;4957891;28;20054;-60
2024/04/01 12:40:16;;;;;;;0.88;0.60;;;12.80;99.90;;;;;;4971996;28;20050;-61
2024/04/01 12:42:43;;;;;;;1.77;0.60;;;12.80;99.90;;;;;;4958480;28;20463;-61
2024/04/01 12:45:11;;;;;;;0.30;0.30;;;13.00;99.90;;;;;;4955626;28;20050;-61
2024/04/01 12:47:37;;;;;;;0.30;0.30;;;13.10;99.90;;;;;;4966520;28;20046;-61
2024/04/01 12:50:09;;;;;;;0.70;0.30;;;13.00;99.90;;;;;;4946865;28;20066;-61
2024/04/01 12:52:48;;;;;;;0.30;0.30;;;13.00;99.90;;;;;;4974577;28;20050;-61
2024/04/01 12:55:20;;;;;;;0.47;0.35;;;13.00;99.90;;;;;;4958491;28;20057;-61
2024/04/01 12:57:55;;;;;;;0.35;0.35;;;13.00;99.90;;;;;;4958045;28;20093;-61